createdAt,value
2023-01-19T00:04:59.682Z,1.24
2023-01-19T00:10:03.501Z,1.22
2023-01-19T00:15:08.453Z,1.22
2023-01-19T00:20:12.598Z,1.24
2023-01-19T00:25:15.789Z,1.26
2023-01-19T00:30:19.004Z,1.29
2023-01-19T00:35:22.417Z,1.32
2023-01-19T00:40:26.035Z,1.35
2023-01-19T00:45:29.359Z,1.37
2023-01-19T00:50:33.776Z,1.40
2023-01-19T00:55:36.877Z,1.42
2023-01-19T01:00:40.191Z,1.44
2023-01-19T01:05:43.400Z,1.44
2023-01-19T01:10:46.809Z,1.42
2023-01-19T01:15:51.676Z,1.41
2023-01-19T01:21:05.009Z,1.38
2023-01-19T01:26:08.225Z,1.35
2023-01-19T01:31:11.290Z,1.34
2023-01-19T01:36:14.579Z,1.32
2023-01-19T01:41:17.942Z,1.31
2023-01-19T01:46:27.022Z,1.32
2023-01-19T01:51:37.765Z,1.33
2023-01-19T01:56:44.658Z,1.35
2023-01-19T02:02:06.535Z,1.37
2023-01-19T02:07:36.350Z,1.41
2023-01-19T02:12:58.895Z,1.43
2023-01-19T02:18:02.520Z,1.45
2023-01-19T02:23:13.095Z,1.45
2023-01-19T02:28:18.059Z,1.45
2023-01-19T02:33:21.253Z,1.44
2023-01-19T02:38:27.232Z,1.43
2023-01-19T02:43:32.339Z,1.39
2023-01-19T02:48:36.308Z,1.35
2023-01-19T02:54:13.922Z,1.32
2023-01-19T02:59:41.807Z,1.29
2023-01-19T03:04:54.639Z,1.24
2023-01-19T03:10:09.927Z,1.20
2023-01-19T03:15:27.697Z,1.14
2023-01-19T03:20:31.295Z,1.07
2023-01-19T03:25:40.551Z,1.04
2023-01-19T03:30:48.210Z,1.02
2023-01-19T03:35:57.310Z,0.98
2023-01-19T03:41:11.265Z,0.93
2023-01-19T03:46:17.726Z,0.87
2023-01-19T03:51:22.391Z,0.83
2023-01-19T03:56:26.376Z,0.79
2023-01-19T04:01:29.709Z,0.74
2023-01-19T04:06:33.157Z,0.68
2023-01-19T04:11:36.351Z,0.60
2023-01-19T04:16:39.963Z,0.52
2023-01-19T04:21:43.274Z,0.42
2023-01-19T04:26:46.891Z,0.32
2023-01-19T04:31:49.890Z,0.27
2023-01-19T04:36:53.204Z,0.29
2023-01-19T04:41:57.779Z,0.37
2023-01-19T04:47:01.768Z,0.48
2023-01-19T04:52:05.316Z,0.58
2023-01-19T04:57:08.492Z,0.67
2023-01-19T05:02:12.081Z,0.72
2023-01-19T05:07:15.317Z,0.76
2023-01-19T05:12:18.316Z,0.79
2023-01-19T05:17:21.425Z,0.79
2023-01-19T05:22:24.942Z,0.76
2023-01-19T05:27:28.358Z,0.74
2023-01-19T05:32:31.578Z,0.75
2023-01-19T05:37:34.667Z,0.77
2023-01-19T05:42:37.979Z,0.76
2023-01-19T05:47:40.988Z,0.70
2023-01-19T05:52:44.086Z,0.63
2023-01-19T05:57:47.499Z,0.58
2023-01-19T06:02:51.027Z,0.54
2023-01-19T06:07:56.676Z,0.50
2023-01-19T06:13:00.037Z,0.48
2023-01-19T06:18:03.195Z,0.48
2023-01-19T06:23:06.817Z,0.49
2023-01-19T06:28:09.944Z,0.50
2023-01-19T06:33:13.132Z,0.51
2023-01-19T06:38:18.767Z,0.52
2023-01-19T06:43:22.305Z,0.53
2023-01-19T06:48:25.419Z,0.56
2023-01-19T06:53:30.423Z,0.58
2023-01-19T06:58:35.010Z,0.57
2023-01-19T07:03:38.816Z,0.55
2023-01-19T07:08:41.825Z,0.55
2023-01-19T07:13:46.966Z,0.53
2023-01-19T07:18:50.598Z,0.52
2023-01-19T07:23:54.028Z,0.52
2023-01-19T07:28:57.124Z,0.55
2023-01-19T07:34:00.639Z,0.59
2023-01-19T07:39:03.738Z,0.62
2023-01-19T07:44:06.847Z,0.62
2023-01-19T07:49:09.957Z,0.61
2023-01-19T07:54:13.159Z,0.59
2023-01-19T07:59:16.162Z,0.58
2023-01-19T08:04:19.320Z,0.59
2023-01-19T08:09:23.092Z,0.63
2023-01-19T08:14:26.316Z,0.68
2023-01-19T08:19:30.028Z,0.71
2023-01-19T08:24:32.945Z,0.76
2023-01-19T08:29:36.344Z,0.79
2023-01-19T08:34:39.348Z,0.81
2023-01-19T08:39:42.446Z,0.85
2023-01-19T08:44:57.240Z,0.92
2023-01-19T08:50:01.054Z,1.01
2023-01-19T08:55:05.329Z,1.09
2023-01-19T09:00:10.650Z,1.19
2023-01-19T09:05:14.090Z,1.27
2023-01-19T09:10:18.072Z,1.34
2023-01-19T09:15:21.910Z,1.40
2023-01-19T09:20:25.101Z,1.44
2023-01-19T09:25:28.540Z,1.52
2023-01-19T09:30:33.531Z,1.62
2023-01-19T09:35:37.284Z,1.74
2023-01-19T09:40:45.311Z,1.82
2023-01-19T09:46:12.344Z,1.89
2023-01-19T09:51:26.442Z,1.97
2023-01-19T09:56:29.957Z,2.03
2023-01-19T10:01:35.047Z,2.05
2023-01-19T10:06:38.823Z,2.06
2023-01-19T10:11:53.153Z,2.07
2023-01-19T10:17:15.059Z,2.09
2023-01-19T10:22:21.533Z,2.18
2023-01-19T10:27:27.614Z,2.20
2023-01-19T10:32:33.473Z,2.19
2023-01-19T10:37:42.184Z,2.18
2023-01-19T10:42:45.313Z,2.14
2023-01-19T10:47:49.245Z,2.12
2023-01-19T10:52:54.201Z,2.14
2023-01-19T10:57:58.343Z,2.16
2023-01-19T11:03:01.759Z,2.22
2023-01-19T11:08:22.131Z,2.36
2023-01-19T11:13:25.751Z,2.50
2023-01-19T11:18:30.906Z,2.60
2023-01-19T11:23:43.071Z,2.59
2023-01-19T11:28:47.977Z,2.55
2023-01-19T11:33:52.304Z,2.56
2023-01-19T11:38:57.362Z,2.58
2023-01-19T11:44:03.333Z,2.56
2023-01-19T11:49:08.893Z,2.56
2023-01-19T11:54:24.387Z,2.59
2023-01-19T11:59:27.695Z,2.62
2023-01-19T12:04:33.872Z,2.63
2023-01-19T12:09:43.227Z,2.60
2023-01-19T12:15:07.650Z,2.55
2023-01-19T12:20:19.231Z,2.49
2023-01-19T12:25:41.083Z,2.44
2023-01-19T12:30:44.555Z,2.48
2023-01-19T12:36:02.491Z,2.51
2023-01-19T12:41:26.183Z,2.53
2023-01-19T12:46:30.926Z,2.53
2023-01-19T12:51:34.191Z,2.54
2023-01-19T12:56:38.734Z,2.57
2023-01-19T13:01:41.962Z,2.55
2023-01-19T13:06:48.547Z,2.52
2023-01-19T13:12:14.960Z,2.53
2023-01-19T13:17:30.988Z,2.55
2023-01-19T13:22:49.771Z,2.56
2023-01-19T13:27:52.856Z,2.55
2023-01-19T13:32:57.804Z,2.54
2023-01-19T13:38:01.545Z,2.54
2023-01-19T13:43:06.883Z,2.51
2023-01-19T13:48:15.209Z,2.48
2023-01-19T13:53:19.443Z,2.43
2023-01-19T13:58:23.677Z,2.37
2023-01-19T14:03:27.063Z,2.31
2023-01-19T14:08:33.061Z,2.25
2023-01-19T14:13:43.354Z,2.21
2023-01-19T14:18:46.849Z,2.15
2023-01-19T14:24:09.235Z,2.10
2023-01-19T14:29:12.213Z,2.05
2023-01-19T14:34:35.279Z,2.00
2023-01-19T14:39:38.282Z,1.95
2023-01-19T14:44:41.592Z,1.92
2023-01-19T14:49:47.026Z,1.88
2023-01-19T14:54:50.873Z,1.84
2023-01-19T14:59:54.082Z,1.82
2023-01-19T15:04:58.214Z,1.79
2023-01-19T15:10:04.398Z,1.76
2023-01-19T15:15:14.015Z,1.71
2023-01-19T15:20:19.964Z,1.68
2023-01-19T15:25:26.576Z,1.66
2023-01-19T15:30:33.861Z,1.63
2023-01-19T15:35:37.044Z,1.62
2023-01-19T15:40:40.432Z,1.62
2023-01-19T15:46:03.878Z,1.62
2023-01-19T15:51:11.750Z,1.62
2023-01-19T15:56:16.384Z,1.63
2023-01-19T16:01:21.505Z,1.64
2023-01-19T16:06:24.833Z,1.63
2023-01-19T16:11:30.860Z,1.64
2023-01-19T16:16:34.275Z,1.64
2023-01-19T16:21:38.799Z,1.65
2023-01-19T16:26:42.073Z,1.65
2023-01-19T16:31:45.830Z,1.65
2023-01-19T16:36:49.200Z,1.64
2023-01-19T16:41:52.518Z,1.63
2023-01-19T16:46:56.081Z,1.63
2023-01-19T16:52:00.359Z,1.61
2023-01-19T16:57:04.179Z,1.60
2023-01-19T17:02:08.205Z,1.59
2023-01-19T17:07:12.163Z,1.58
2023-01-19T17:12:15.648Z,1.57
2023-01-19T17:17:18.961Z,1.56
2023-01-19T17:22:22.369Z,1.55
2023-01-19T17:27:26.092Z,1.55
2023-01-19T17:32:30.835Z,1.55
2023-01-19T17:37:34.966Z,1.53
2023-01-19T17:42:42.175Z,1.52
2023-01-19T17:47:48.548Z,1.52
2023-01-19T17:52:53.399Z,1.51
2023-01-19T17:57:57.770Z,1.51
2023-01-19T18:03:03.001Z,1.52
2023-01-19T18:08:06.303Z,1.52
2023-01-19T18:13:09.713Z,1.53
2023-01-19T18:18:12.914Z,1.55
2023-01-19T18:23:16.440Z,1.55
2023-01-19T18:28:19.740Z,1.55
2023-01-19T18:33:23.253Z,1.55
2023-01-19T18:38:26.673Z,1.54
2023-01-19T18:43:29.876Z,1.53
2023-01-19T18:48:33.292Z,1.52
2023-01-19T18:53:37.015Z,1.52
2023-01-19T18:58:40.626Z,1.54
2023-01-19T19:03:44.551Z,1.54
2023-01-19T19:08:48.579Z,1.56
2023-01-19T19:13:56.301Z,1.56
2023-01-19T19:18:59.610Z,1.56
2023-01-19T19:24:03.440Z,1.56
2023-01-19T19:29:06.636Z,1.58
2023-01-19T19:34:12.928Z,1.58
2023-01-19T19:39:16.121Z,1.59
2023-01-19T19:44:19.432Z,1.59
2023-01-19T19:49:23.868Z,1.59
2023-01-19T19:54:26.799Z,1.59
2023-01-19T19:59:30.291Z,1.60
2023-01-19T20:04:34.232Z,1.60
2023-01-19T20:09:38.341Z,1.60
2023-01-19T20:14:41.653Z,1.60
2023-01-19T20:19:46.806Z,1.57
2023-01-19T20:24:51.750Z,1.53
2023-01-19T20:29:58.581Z,1.49
2023-01-19T20:35:02.063Z,1.48
2023-01-19T20:40:13.472Z,1.47
2023-01-19T20:45:17.797Z,1.44
2023-01-19T20:50:22.642Z,1.43
2023-01-19T20:55:26.059Z,1.42
2023-01-19T21:00:29.371Z,1.42
2023-01-19T21:05:32.783Z,1.41
2023-01-19T21:10:36.188Z,1.41
2023-01-19T21:15:39.247Z,1.40
2023-01-19T21:20:42.605Z,1.40
2023-01-19T21:25:49.709Z,1.39
2023-01-19T21:30:53.876Z,1.36
2023-01-19T21:35:57.539Z,1.35
2023-01-19T21:41:05.293Z,1.37
2023-01-19T21:46:18.924Z,1.41
2023-01-19T21:51:22.337Z,1.43
2023-01-19T21:56:25.861Z,1.44
2023-01-19T22:01:29.551Z,1.47
2023-01-19T22:06:32.790Z,1.49
2023-01-19T22:11:36.199Z,1.49
2023-01-19T22:16:39.450Z,1.48
2023-01-19T22:21:42.515Z,1.47
2023-01-19T22:26:45.612Z,1.46
2023-01-19T22:31:52.064Z,1.45
2023-01-19T22:36:55.319Z,1.43
2023-01-19T22:41:58.629Z,1.42
2023-01-19T22:47:01.822Z,1.42
2023-01-19T22:52:05.134Z,1.40
2023-01-19T22:57:11.517Z,1.40
2023-01-19T23:02:14.903Z,1.38
2023-01-19T23:07:17.931Z,1.37
2023-01-19T23:12:20.873Z,1.40
2023-01-19T23:17:23.756Z,1.43
2023-01-19T23:22:26.839Z,1.45
2023-01-19T23:27:29.724Z,1.47
2023-01-19T23:32:33.251Z,1.49
2023-01-19T23:37:36.155Z,1.50
2023-01-19T23:42:39.264Z,1.51
2023-01-19T23:47:43.595Z,1.52
2023-01-19T23:52:46.699Z,1.53
2023-01-19T23:57:49.599Z,1.54
